Time;durP1;ratioP1;P1;durP2;ratioP2;P2;SDS_P1;SDS_P2;PMS_P1;PMS_P2;Temp;Humidity;BMP_temperature;BMP_pressure;BME280_temperature;BME280_humidity;BME280_pressure;Samples;Min_cycle;Max_cycle;Signal;HPM_P1;HPM_P2
2021/11/20 06:27:45;;;;;;;46.78;20.25;;;6.70;99.90;;;;;;6129418;23;20014;-81
2021/11/20 06:30:17;;;;;;;49.53;20.30;;;6.70;99.90;;;;;;6133567;23;20030;-81
2021/11/20 06:32:44;;;;;;;50.22;20.63;;;6.60;99.90;;;;;;6139075;23;20021;-79
2021/11/20 06:35:15;;;;;;;40.45;18.98;;;6.60;99.90;;;;;;6137071;23;20515;-79
2021/11/20 06:37:44;;;;;;;47.05;20.63;;;6.50;99.90;;;;;;6133595;23;20026;-80
2021/11/20 06:40:13;;;;;;;;;;;6.40;99.90;;;;;;6134742;23;20089;-82
2021/11/20 06:42:41;;;;;;;41.15;19.08;;;6.40;99.90;;;;;;6138606;23;19940;-80
2021/11/20 06:45:10;;;;;;;46.57;19.60;;;6.30;99.90;;;;;;6138018;23;20018;-80
2021/11/20 06:47:37;;;;;;;48.08;20.52;;;6.20;99.90;;;;;;6133695;23;20026;-81
2021/11/20 06:50:04;;;;;;;50.83;20.98;;;6.20;99.90;;;;;;6133993;23;20050;-80
2021/11/20 06:52:31;;;;;;;55.50;20.48;;;6.10;99.90;;;;;;6134318;23;20521;-80
2021/11/20 06:54:59;;;;;;;41.95;19.70;;;6.10;99.90;;;;;;6133206;23;20100;-80
2021/11/20 06:57:47;;;;;;;52.55;20.50;;;6.00;99.90;;;;;;6136361;23;20029;-80
2021/11/20 07:00:27;;;;;;;53.35;20.88;;;6.00;99.90;;;;;;6123850;23;20088;-80
2021/11/20 07:03:02;;;;;;;50.15;21.10;;;5.90;99.90;;;;;;6133395;23;20096;-81
2021/11/20 07:05:35;;;;;;;42.95;19.52;;;5.80;99.90;;;;;;6094644;23;20026;-80
2021/11/20 07:08:03;;;;;;;48.78;19.40;;;5.80;99.90;;;;;;6120853;23;20018;-80
2021/11/20 07:10:30;;;;;;;42.60;20.25;;;5.70;99.90;;;;;;6133563;23;20072;-79
2021/11/20 07:12:58;;;;;;;52.35;21.08;;;5.70;99.90;;;;;;6132895;23;20022;-79
2021/11/20 07:15:26;;;;;;;43.20;18.60;;;5.60;99.90;;;;;;6136246;23;20034;-80
2021/11/20 07:17:54;;;;;;;48.88;19.90;;;5.60;99.90;;;;;;6138343;23;20427;-80
2021/11/20 07:20:28;;;;;;;46.22;21.20;;;5.50;99.90;;;;;;6134854;23;20419;-79
2021/11/20 07:22:55;;;;;;;48.35;20.52;;;5.40;99.90;;;;;;6133377;23;20028;-80
2021/11/20 07:25:27;;;;;;;56.70;21.55;;;5.40;99.90;;;;;;6136037;23;20026;-79
2021/11/20 07:27:55;;;;;;;58.30;21.77;;;5.30;99.90;;;;;;6137914;23;20025;-81
2021/11/20 07:30:26;;;;;;;46.65;20.10;;;5.20;99.90;;;;;;6134442;23;20543;-81
2021/11/20 07:32:54;;;;;;;58.65;20.65;;;5.20;99.90;;;;;;6132786;23;20053;-81
2021/11/20 07:35:35;;;;;;;42.95;20.45;;;5.10;99.90;;;;;;6134959;23;20096;-80
2021/11/20 07:38:05;;;;;;;53.20;21.17;;;5.10;99.90;;;;;;6137770;23;20018;-80
2021/11/20 07:40:35;;;;;;;47.45;20.23;;;5.10;99.90;;;;;;6125357;23;20018;-81
2021/11/20 07:43:02;;;;;;;49.33;23.25;;;5.20;99.90;;;;;;6137647;23;20017;-80
2021/11/20 07:45:29;;;;;;;49.85;23.30;;;5.20;99.90;;;;;;6143769;23;20021;-80
2021/11/20 07:48:02;;;;;;;51.15;22.95;;;5.30;99.90;;;;;;6132662;23;20026;-80
2021/11/20 07:50:30;;;;;;;49.83;21.95;;;5.30;99.90;;;;;;6132861;23;20033;-80
2021/11/20 07:52:57;;;;;;;53.55;22.83;;;5.40;99.90;;;;;;6131805;23;20492;-80
2021/11/20 07:55:23;;;;;;;50.80;22.02;;;5.40;99.90;;;;;;6136016;23;20026;-80
2021/11/20 07:57:50;;;;;;;55.53;21.92;;;5.40;99.90;;;;;;6139626;23;20018;-80
2021/11/20 08:00:20;;;;;;;44.30;20.92;;;5.50;99.90;;;;;;6136935;23;20084;-79
2021/11/20 08:02:47;;;;;;;40.75;21.08;;;5.60;99.90;;;;;;6134227;23;20401;-78
2021/11/20 08:05:15;;;;;;;47.50;22.13;;;5.60;99.90;;;;;;6109488;23;20106;-79
2021/11/20 08:07:44;;;;;;;51.03;22.13;;;5.70;99.90;;;;;;6138825;23;20394;-80
2021/11/20 08:10:15;;;;;;;50.80;22.40;;;5.70;99.90;;;;;;6137149;23;20092;-80
2021/11/20 08:12:43;;;;;;;56.10;24.38;;;5.70;99.90;;;;;;6133961;23;20018;-80
2021/11/20 08:15:10;;;;;;;44.10;22.43;;;5.80;99.90;;;;;;6079497;23;20167;-79
2021/11/20 08:17:37;;;;;;;47.45;21.80;;;5.80;99.90;;;;;;6133857;23;20021;-79
2021/11/20 08:20:08;;;;;;;50.95;22.88;;;5.80;99.90;;;;;;6134511;23;20427;-80
2021/11/20 08:22:35;;;;;;;49.90;23.13;;;5.80;99.90;;;;;;6123532;23;20029;-79
2021/11/20 08:25:04;;;;;;;67.47;25.33;;;5.80;99.90;;;;;;6134341;23;20107;-79
2021/11/20 08:27:32;;;;;;;67.75;23.17;;;5.80;99.90;;;;;;6140005;23;20353;-80
2021/11/20 08:30:00;;;;;;;155.52;25.88;;;5.80;99.90;;;;;;6117546;23;20025;-80
2021/11/20 08:32:27;;;;;;;95.30;23.35;;;5.80;99.90;;;;;;6116210;23;20085;-79
2021/11/20 08:34:56;;;;;;;157.75;25.40;;;5.80;99.90;;;;;;6100632;23;20037;-80
2021/11/20 08:37:23;;;;;;;184.90;26.05;;;5.80;99.90;;;;;;6133888;23;20026;-79
2021/11/20 08:39:53;;;;;;;253.02;29.27;;;5.70;99.90;;;;;;6108362;23;20022;-80
2021/11/20 08:42:19;;;;;;;166.30;25.55;;;5.70;99.90;;;;;;6130407;23;20033;-79
2021/11/20 08:44:46;;;;;;;340.50;32.78;;;5.70;99.90;;;;;;6129565;23;20096;-80
2021/11/20 08:47:15;;;;;;;271.38;29.75;;;5.80;99.90;;;;;;6104759;23;20030;-79
2021/11/20 08:49:42;;;;;;;245.30;29.02;;;5.70;99.90;;;;;;6134497;23;20121;-80
2021/11/20 08:52:10;;;;;;;168.80;24.75;;;5.80;99.90;;;;;;6132711;23;20467;-80
2021/11/20 08:54:37;;;;;;;290.88;30.40;;;5.70;99.90;;;;;;6128075;23;20021;-81
2021/11/20 08:57:05;;;;;;;214.07;28.65;;;5.70;99.90;;;;;;6126393;23;20093;-81
2021/11/20 08:59:33;;;;;;;243.52;30.17;;;5.80;99.90;;;;;;6133677;23;20088;-81
2021/11/20 09:02:23;;;;;;;237.88;28.67;;;5.80;99.90;;;;;;6134893;23;20127;-80
2021/11/20 09:05:03;;;;;;;220.02;29.08;;;5.90;99.90;;;;;;6124906;23;20042;-80
2021/11/20 09:07:33;;;;;;;191.07;26.63;;;5.90;99.90;;;;;;6115943;23;20073;-80
2021/11/20 09:10:17;;;;;;;151.93;28.50;;;5.90;99.90;;;;;;6116884;23;20364;-82
2021/11/20 09:12:55;;;;;;;186.57;28.65;;;5.90;99.90;;;;;;6124581;23;20021;-78
2021/11/20 09:15:22;;;;;;;239.60;28.88;;;6.00;99.90;;;;;;6129730;23;20092;-80
2021/11/20 09:17:50;;;;;;;147.52;26.58;;;6.00;99.90;;;;;;6128525;23;20029;-80
2021/11/20 09:20:18;;;;;;;189.83;28.03;;;6.00;99.90;;;;;;6130045;23;20026;-78
2021/11/20 09:22:46;;;;;;;294.30;30.55;;;6.00;99.90;;;;;;6134080;23;20253;-79
2021/11/20 09:25:14;;;;;;;256.70;30.20;;;6.00;99.90;;;;;;6131836;23;20029;-79
2021/11/20 09:28:08;;;;;;;271.05;31.55;;;6.00;99.90;;;;;;6095829;23;20105;-78
2021/11/20 09:30:39;;;;;;;161.68;28.35;;;6.10;99.90;;;;;;6091806;23;20030;-79
2021/11/20 09:33:06;;;;;;;204.70;28.95;;;6.10;99.90;;;;;;6102134;23;20022;-81
2021/11/20 09:35:34;;;;;;;261.27;33.10;;;6.10;99.90;;;;;;6098715;23;20029;-80
2021/11/20 09:38:01;;;;;;;174.80;27.65;;;6.10;99.90;;;;;;6096247;23;20022;-80
2021/11/20 09:40:31;;;;;;;141.13;26.98;;;6.20;99.90;;;;;;6102356;23;20021;-79
2021/11/20 09:43:01;;;;;;;271.58;29.80;;;6.20;99.90;;;;;;6100714;23;20539;-80
2021/11/20 09:45:34;;;;;;;154.10;27.88;;;6.20;99.90;;;;;;6097077;23;20505;-79
2021/11/20 09:48:10;;;;;;;158.65;27.50;;;6.30;99.90;;;;;;6098442;23;20045;-79
2021/11/20 09:50:43;;;;;;;176.65;26.85;;;6.30;99.90;;;;;;6091883;23;20022;-77
2021/11/20 09:53:11;;;;;;;181.80;27.27;;;6.40;99.90;;;;;;6101063;23;20026;-80
2021/11/20 09:55:49;;;;;;;300.08;31.75;;;6.40;99.90;;;;;;6097855;23;20015;-80
2021/11/20 09:58:27;;;;;;;292.00;32.63;;;6.40;99.90;;;;;;6099564;23;20066;-79
2021/11/20 10:01:03;;;;;;;268.88;31.98;;;6.40;99.90;;;;;;6099164;23;20300;-80
2021/11/20 10:03:45;;;;;;;287.25;30.83;;;6.50;99.90;;;;;;6088146;23;20361;-80
2021/11/20 10:06:42;;;;;;;198.88;29.35;;;6.50;99.90;;;;;;6098393;23;20085;-81
2021/11/20 10:09:31;;;;;;;261.13;30.45;;;6.50;99.90;;;;;;6094455;23;20022;-80
2021/11/20 10:12:26;;;;;;;278.63;30.92;;;6.50;99.90;;;;;;6102678;23;20050;-79
2021/11/20 10:15:05;;;;;;;208.65;27.58;;;6.60;99.90;;;;;;6082310;23;20023;-81
2021/11/20 10:17:32;;;;;;;310.20;32.25;;;6.60;99.90;;;;;;6097506;23;20018;-81
2021/11/20 10:20:13;;;;;;;211.32;29.40;;;6.60;99.90;;;;;;6098649;23;20078;-81
2021/11/20 10:22:58;;;;;;;210.07;27.15;;;6.50;99.90;;;;;;6093500;23;20014;-80
2021/11/20 10:25:53;;;;;;;240.90;27.10;;;6.60;99.90;;;;;;6098459;23;20141;-80
2021/11/20 10:28:58;;;;;;;261.33;29.17;;;6.60;99.90;;;;;;6125296;23;20021;-80
2021/11/20 10:31:32;;;;;;;214.65;27.00;;;6.60;99.90;;;;;;6127776;23;20437;-81
2021/11/20 10:34:27;;;;;;;180.15;27.23;;;6.60;99.90;;;;;;6127807;23;20786;-80
2021/11/20 10:36:58;;;;;;;209.98;26.67;;;6.60;99.90;;;;;;6122905;23;20111;-80
2021/11/20 10:39:27;;;;;;;216.90;28.02;;;6.70;99.90;;;;;;6114943;23;20037;-79
2021/11/20 10:42:37;;;;;;;187.70;27.20;;;6.70;99.90;;;;;;6115715;23;20018;-79
2021/11/20 10:45:19;;;;;;;181.77;26.38;;;6.70;99.90;;;;;;6115477;23;20018;-79
2021/11/20 10:47:59;;;;;;;126.70;24.80;;;6.70;99.90;;;;;;6097578;23;20065;-79
2021/11/20 10:50:38;;;;;;;127.22;25.48;;;6.70;99.90;;;;;;6106753;23;20639;-78
2021/11/20 10:53:46;;;;;;;200.30;28.70;;;6.70;99.90;;;;;;6132860;23;20032;-78
2021/11/20 10:56:22;;;;;;;146.65;29.42;;;6.80;99.90;;;;;;6051016;23;20090;-77
2021/11/20 10:59:26;;;;;;;201.88;26.58;;;6.70;99.90;;;;;;6054162;23;20023;-80
2021/11/20 11:02:10;;;;;;;254.88;27.45;;;6.80;99.90;;;;;;6032262;23;20020;-78
2021/11/20 11:05:05;;;;;;;105.38;24.40;;;6.80;99.90;;;;;;6052913;23;20019;-78
2021/11/20 11:07:58;;;;;;;295.95;27.35;;;6.80;99.90;;;;;;6041927;23;20063;-77
2021/11/20 11:10:43;;;;;;;127.70;23.35;;;6.80;99.90;;;;;;6052517;23;20055;-78
2021/11/20 11:13:40;;;;;;;174.90;25.08;;;6.70;99.90;;;;;;6030227;23;20022;-80
2021/11/20 11:16:34;;;;;;;122.55;24.33;;;6.60;99.90;;;;;;6053069;23;20639;-81
2021/11/20 11:19:25;;;;;;;144.65;24.25;;;6.70;99.90;;;;;;6054175;23;20059;-80
2021/11/20 11:22:04;;;;;;;113.50;23.15;;;6.80;99.90;;;;;;6054318;23;20648;-79
2021/11/20 11:24:43;;;;;;;138.40;23.08;;;6.80;99.90;;;;;;6054089;23;20042;-79
2021/11/20 11:27:17;;;;;;;118.78;22.33;;;6.70;99.90;;;;;;6052908;23;20127;-80
2021/11/20 11:29:50;;;;;;;201.15;25.70;;;6.70;99.90;;;;;;6069761;23;20021;-81
2021/11/20 11:32:18;;;;;;;91.15;24.20;;;6.70;99.90;;;;;;6126957;23;20076;-79
2021/11/20 11:34:55;;;;;;;93.82;23.42;;;6.60;99.90;;;;;;6127983;23;20065;-79
2021/11/20 11:38:05;;;;;;;79.28;22.48;;;6.70;99.90;;;;;;6130863;23;20037;-79
2021/11/20 11:41:18;;;;;;;77.50;22.27;;;6.60;99.90;;;;;;6125914;23;20063;-80
2021/11/20 11:44:01;;;;;;;53.83;21.42;;;6.60;99.90;;;;;;6127978;23;20022;-79
2021/11/20 11:46:47;;;;;;;38.33;20.52;;;6.70;99.90;;;;;;6132040;23;20021;-79
2021/11/20 11:49:32;;;;;;;42.20;20.55;;;6.70;99.90;;;;;;6129953;23;20026;-80
2021/11/20 11:52:23;;;;;;;45.67;19.95;;;6.80;99.90;;;;;;6127895;23;20049;-79
2021/11/20 11:55:18;;;;;;;55.40;21.20;;;6.70;99.90;;;;;;6127613;23;20022;-80
2021/11/20 11:57:57;;;;;;;42.30;20.95;;;6.70;99.90;;;;;;6127403;23;20472;-79
2021/11/20 12:00:36;;;;;;;40.00;21.83;;;6.70;99.90;;;;;;6105404;23;20022;-79
2021/11/20 12:03:17;;;;;;;49.40;21.38;;;6.70;99.90;;;;;;6132736;23;20030;-80
2021/11/20 12:05:59;;;;;;;48.78;22.20;;;6.70;99.90;;;;;;6126768;23;20022;-79
2021/11/20 12:08:36;;;;;;;54.65;21.40;;;6.70;99.90;;;;;;6131642;23;20025;-80
2021/11/20 12:11:17;;;;;;;45.50;22.10;;;6.70;99.90;;;;;;6132847;23;20023;-80
2021/11/20 12:13:49;;;;;;;50.60;23.50;;;6.60;99.90;;;;;;6137141;23;20115;-79
2021/11/20 12:16:22;;;;;;;75.60;24.73;;;6.60;99.90;;;;;;6128473;23;20025;-80
2021/11/20 12:18:59;;;;;;;39.35;22.20;;;6.60;99.90;;;;;;6133177;23;20010;-80
2021/11/20 12:21:58;;;;;;;43.85;21.92;;;6.60;99.90;;;;;;6127240;23;20022;-79
2021/11/20 12:25:11;;;;;;;40.80;22.58;;;6.60;99.90;;;;;;6126264;23;20077;-80
2021/11/20 12:27:55;;;;;;;42.47;25.00;;;6.60;99.90;;;;;;5973805;23;20038;-80
2021/11/20 12:30:22;;;;;;;61.25;37.65;;;6.70;99.90;;;;;;5995845;23;20087;-80
2021/11/20 12:33:18;;;;;;;37.15;23.23;;;6.80;99.90;;;;;;5996942;23;20024;-80
2021/11/20 12:36:04;;;;;;;35.15;23.55;;;6.80;99.90;;;;;;5967451;23;20592;-79
2021/11/20 12:38:49;;;;;;;35.03;23.30;;;6.90;99.90;;;;;;5995961;23;20028;-79
2021/11/20 12:41:53;;;;;;;35.10;22.73;;;7.00;99.90;;;;;;5997009;23;20120;-79
2021/11/20 12:44:29;;;;;;;32.47;22.08;;;7.10;99.90;;;;;;5998290;23;20035;-78
2021/11/20 12:47:02;;;;;;;29.20;20.13;;;7.20;99.90;;;;;;5999532;23;20079;-79
2021/11/20 12:50:19;;;;;;;37.40;24.73;;;7.20;99.90;;;;;;5997955;23;20158;-79
2021/11/20 12:52:56;;;;;;;34.35;23.50;;;7.30;99.90;;;;;;5998148;23;20028;-78
2021/11/20 12:55:45;;;;;;;36.92;29.20;;;7.40;99.90;;;;;;5998237;23;20061;-79
2021/11/20 12:58:30;;;;;;;37.88;29.50;;;7.50;99.90;;;;;;5998504;23;20068;-77
2021/11/20 13:00:57;;;;;;;27.02;19.50;;;7.50;99.90;;;;;;5998935;23;20023;-79
2021/11/20 13:03:55;;;;;;;27.48;19.38;;;7.60;99.90;;;;;;5999957;23;20094;-78
2021/11/20 13:06:29;;;;;;;28.50;18.95;;;7.60;99.90;;;;;;6080303;23;20023;-79
2021/11/20 13:09:16;;;;;;;25.75;18.33;;;7.70;99.90;;;;;;6083972;23;20287;-79
2021/11/20 13:12:03;;;;;;;27.13;19.80;;;7.80;99.90;;;;;;6084259;23;20021;-80
2021/11/20 13:15:00;;;;;;;25.17;18.42;;;7.80;99.90;;;;;;6031015;23;20086;-79
2021/11/20 13:17:31;;;;;;;27.73;18.52;;;7.80;99.90;;;;;;6054766;23;20031;-78
2021/11/20 13:20:23;;;;;;;24.80;18.23;;;7.80;99.90;;;;;;6054362;23;20026;-78
2021/11/20 13:23:06;;;;;;;25.77;18.67;;;7.80;99.90;;;;;;6052366;23;20082;-79
2021/11/20 13:25:45;;;;;;;27.80;19.73;;;7.80;99.90;;;;;;6051987;23;20019;-77
2021/11/20 13:28:12;;;;;;;31.63;24.75;;;7.80;99.90;;;;;;6083417;23;20025;-78
2021/11/20 13:30:41;;;;;;;25.85;18.55;;;7.80;99.90;;;;;;6113510;23;20022;-78
2021/11/20 13:33:09;;;;;;;25.35;18.27;;;7.80;99.90;;;;;;6112889;23;20018;-79
2021/11/20 13:35:40;;;;;;;26.07;19.07;;;7.70;99.90;;;;;;6113761;23;20044;-79
2021/11/20 13:38:14;;;;;;;31.48;20.88;;;7.70;99.90;;;;;;6113365;23;20315;-79
2021/11/20 13:40:46;;;;;;;24.77;17.40;;;7.70;99.90;;;;;;6114812;23;20038;-78
2021/11/20 13:43:15;;;;;;;23.98;16.73;;;7.60;99.90;;;;;;6113035;23;20018;-78
2021/11/20 13:45:53;;;;;;;23.83;17.73;;;7.60;99.90;;;;;;6114185;23;20014;-77
2021/11/20 13:48:29;;;;;;;26.08;17.58;;;7.60;99.90;;;;;;6114265;23;20053;-78
2021/11/20 13:50:57;;;;;;;24.58;18.27;;;7.60;99.90;;;;;;6112138;23;20021;-79
2021/11/20 13:53:29;;;;;;;27.45;19.75;;;7.60;99.90;;;;;;6113155;23;20022;-79
2021/11/20 13:55:56;;;;;;;34.97;28.52;;;7.60;99.90;;;;;;6115187;23;20076;-78
2021/11/20 13:58:30;;;;;;;27.45;20.25;;;7.60;99.90;;;;;;6113575;23;20054;-79
2021/11/20 14:01:00;;;;;;;27.83;19.25;;;7.60;99.90;;;;;;6112937;23;20026;-79
2021/11/20 14:03:29;;;;;;;26.55;18.40;;;7.70;99.90;;;;;;6112875;23;20368;-79
2021/11/20 14:05:57;;;;;;;16.50;14.57;;;7.60;99.90;;;;;;6112883;23;20026;-78
2021/11/20 14:08:27;;;;;;;23.58;17.52;;;7.50;99.90;;;;;;6118548;23;20077;-78
2021/11/20 14:11:09;;;;;;;26.35;18.98;;;7.50;99.90;;;;;;6119593;23;20018;-79
2021/11/20 14:13:37;;;;;;;26.33;18.92;;;7.50;99.90;;;;;;6141532;23;20033;-79
2021/11/20 14:16:06;;;;;;;16.65;14.85;;;7.50;99.90;;;;;;6119812;23;20014;-79
2021/11/20 14:18:48;;;;;;;27.98;19.60;;;7.40;99.90;;;;;;6119485;23;20037;-78
2021/11/20 14:21:19;;;;;;;28.15;18.92;;;7.40;99.90;;;;;;6131034;23;20025;-78
2021/11/20 14:24:07;;;;;;;26.48;18.33;;;7.40;99.90;;;;;;6137287;23;20029;-79
2021/11/20 14:26:53;;;;;;;17.70;15.45;;;7.30;99.90;;;;;;6143144;23;20080;-78
2021/11/20 14:29:26;;;;;;;24.58;18.98;;;7.20;99.90;;;;;;6135261;23;20477;-78
2021/11/20 14:31:54;;;;;;;29.02;18.80;;;7.20;99.90;;;;;;6137300;23;20018;-77
2021/11/20 14:34:34;;;;;;;27.15;19.40;;;7.30;99.90;;;;;;6134214;23;20048;-77
2021/11/20 14:37:12;;;;;;;23.70;17.77;;;7.10;99.90;;;;;;6132296;23;20018;-79
2021/11/20 14:39:52;;;;;;;18.88;15.20;;;7.20;99.90;;;;;;6148960;23;20021;-78
2021/11/20 14:42:20;;;;;;;29.48;20.35;;;7.10;99.90;;;;;;6142781;23;20034;-77
2021/11/20 14:44:49;;;;;;;35.00;22.80;;;7.20;99.90;;;;;;6144131;23;20072;-78
2021/11/20 14:47:18;;;;;;;34.42;24.08;;;7.20;99.90;;;;;;6143463;23;20033;-77
2021/11/20 14:49:54;;;;;;;33.33;22.33;;;7.30;99.90;;;;;;6144405;23;20071;-78
2021/11/20 14:52:26;;;;;;;38.90;22.83;;;7.20;99.90;;;;;;6143097;23;20106;-78
2021/11/20 14:55:02;;;;;;;32.97;21.67;;;7.20;99.90;;;;;;6143709;23;20072;-78
2021/11/20 14:57:55;;;;;;;32.97;21.55;;;7.30;99.90;;;;;;6121608;23;20021;-76
2021/11/20 15:00:22;;;;;;;31.27;21.27;;;7.30;99.90;;;;;;6141752;23;20084;-76
2021/11/20 15:02:48;;;;;;;30.10;20.33;;;7.30;99.90;;;;;;6142273;23;20041;-77
2021/11/20 15:05:15;;;;;;;30.38;20.50;;;7.30;99.90;;;;;;6141381;23;20546;-76
2021/11/20 15:07:42;;;;;;;33.38;21.10;;;7.40;99.90;;;;;;6145072;23;20032;-76
2021/11/20 15:10:09;;;;;;;31.42;20.63;;;7.30;99.90;;;;;;6143201;23;20021;-76
2021/11/20 15:12:36;;;;;;;32.45;21.85;;;7.30;99.90;;;;;;6145502;23;20026;-77
2021/11/20 15:15:07;;;;;;;32.90;21.27;;;7.40;99.90;;;;;;6144287;23;20013;-76
2021/11/20 15:17:35;;;;;;;39.38;23.45;;;7.40;99.90;;;;;;6144492;23;20084;-77
2021/11/20 15:20:04;;;;;;;33.70;22.38;;;7.40;99.90;;;;;;6117428;23;20068;-76
2021/11/20 15:22:30;;;;;;;24.10;18.00;;;7.40;99.90;;;;;;6142688;23;20021;-77
2021/11/20 15:24:57;;;;;;;38.28;23.50;;;7.40;99.90;;;;;;6142846;23;20033;-76
2021/11/20 15:27:24;;;;;;;54.17;34.45;;;7.40;99.90;;;;;;6143113;23;20035;-78
2021/11/20 15:29:51;;;;;;;60.70;36.13;;;7.40;99.90;;;;;;6144271;23;20017;-76
2021/11/20 15:32:18;;;;;;;46.08;27.90;;;7.40;99.90;;;;;;6143968;23;20034;-76
2021/11/20 15:34:45;;;;;;;35.28;22.98;;;7.40;99.90;;;;;;6144272;23;20017;-77
2021/11/20 15:37:12;;;;;;;39.00;23.13;;;7.50;99.90;;;;;;6143854;23;20025;-77
2021/11/20 15:39:39;;;;;;;39.72;24.58;;;7.50;99.90;;;;;;6143722;23;20087;-77
2021/11/20 15:42:07;;;;;;;55.53;34.33;;;7.50;99.90;;;;;;6143766;23;20562;-77
2021/11/20 15:44:35;;;;;;;41.17;24.20;;;7.50;99.90;;;;;;6143804;23;20095;-78
2021/11/20 15:47:03;;;;;;;20.30;15.88;;;7.50;99.90;;;;;;6143939;23;20021;-77
2021/11/20 15:49:31;;;;;;;35.33;23.02;;;7.60;99.90;;;;;;6143580;23;20471;-77
2021/11/20 15:51:58;;;;;;;43.78;25.65;;;7.60;99.90;;;;;;6144293;23;20029;-77
2021/11/20 15:54:25;;;;;;;47.25;26.58;;;7.60;99.90;;;;;;6143178;23;20105;-77
2021/11/20 15:56:52;;;;;;;50.47;29.13;;;7.60;99.90;;;;;;6118542;23;20075;-77
2021/11/20 15:59:19;;;;;;;55.15;28.45;;;7.60;99.90;;;;;;6143245;23;20748;-78
2021/11/20 16:01:47;;;;;;;58.55;28.33;;;7.60;99.90;;;;;;6144063;23;20029;-78
2021/11/20 16:04:14;;;;;;;50.28;28.42;;;7.50;99.90;;;;;;6142377;23;20060;-77
2021/11/20 16:06:41;;;;;;;50.10;27.10;;;7.50;99.90;;;;;;6144663;23;20372;-78
2021/11/20 16:09:08;;;;;;;62.00;35.75;;;7.50;99.90;;;;;;6141654;23;20495;-81
2021/11/20 16:11:35;;;;;;;40.38;27.52;;;7.60;99.90;;;;;;6116333;23;20028;-79
2021/11/20 16:14:02;;;;;;;54.08;28.00;;;7.60;99.90;;;;;;6142462;23;20127;-76
2021/11/20 16:16:32;;;;;;;60.88;38.83;;;7.60;99.90;;;;;;6141358;23;20412;-77
2021/11/20 16:18:59;;;;;;;50.60;28.30;;;7.70;99.90;;;;;;6144120;23;20764;-79
2021/11/20 16:21:27;;;;;;;60.78;29.35;;;7.70;99.90;;;;;;6117486;23;20025;-78
2021/11/20 16:23:54;;;;;;;55.10;27.27;;;7.70;99.90;;;;;;6146001;23;20100;-78
2021/11/20 16:26:22;;;;;;;61.10;28.95;;;7.70;99.90;;;;;;6145106;23;20105;-76
2021/11/20 16:28:49;;;;;;;55.80;28.20;;;7.60;99.90;;;;;;6145750;23;20045;-77
2021/11/20 16:31:16;;;;;;;64.70;30.33;;;7.70;99.90;;;;;;6145561;23;20026;-79
2021/11/20 16:33:46;;;;;;;54.83;30.23;;;7.60;99.90;;;;;;6146874;23;20458;-79
2021/11/20 16:36:13;;;;;;;65.20;31.52;;;7.60;99.90;;;;;;6120047;23;20052;-78
2021/11/20 16:38:56;;;;;;;77.07;37.45;;;7.60;99.90;;;;;;6146503;23;20045;-77
2021/11/20 16:41:29;;;;;;;64.40;30.40;;;7.60;99.90;;;;;;6145479;23;20076;-77
2021/11/20 16:43:56;;;;;;;77.82;37.08;;;7.60;99.90;;;;;;6147313;23;20021;-78
2021/11/20 16:46:24;;;;;;;72.28;36.60;;;7.60;99.90;;;;;;6145476;23;20556;-78
2021/11/20 16:48:53;;;;;;;82.30;41.28;;;7.60;99.90;;;;;;6146881;23;20017;-77
2021/11/20 16:54:07;;;;;;;87.30;41.72;;;7.60;99.90;;;;;;6146543;23;19921;-77
2021/11/20 16:56:34;;;;;;;73.18;32.42;;;7.60;99.90;;;;;;6147184;23;20013;-78
2021/11/20 16:59:02;;;;;;;74.00;32.72;;;7.60;99.90;;;;;;6146945;23;20117;-78
2021/11/20 17:01:30;;;;;;;54.13;26.10;;;7.60;99.90;;;;;;6143732;23;20071;-77
2021/11/20 17:03:57;;;;;;;79.60;32.05;;;7.50;99.90;;;;;;6144787;23;20036;-79
2021/11/20 17:06:24;;;;;;;83.07;36.55;;;7.50;99.90;;;;;;6142981;23;20033;-78
2021/11/20 17:08:51;;;;;;;87.53;36.08;;;7.50;99.90;;;;;;6144516;23;20021;-79
2021/11/20 17:11:23;;;;;;;98.35;42.10;;;7.50;99.90;;;;;;6142947;23;20040;-78
2021/11/20 17:13:51;;;;;;;72.40;37.20;;;7.50;99.90;;;;;;6144970;23;20108;-78
2021/11/20 17:16:18;;;;;;;82.07;38.65;;;7.50;99.90;;;;;;6116207;23;20032;-79
2021/11/20 17:18:51;;;;;;;92.43;33.90;;;7.50;99.90;;;;;;6116766;23;20052;-79
2021/11/20 17:21:19;;;;;;;100.97;35.05;;;7.50;99.90;;;;;;6140726;23;20029;-78
2021/11/20 17:23:47;;;;;;;87.45;35.20;;;7.50;99.90;;;;;;6142566;23;20064;-79
2021/11/20 17:26:15;;;;;;;81.90;35.92;;;7.50;99.90;;;;;;6141180;23;20088;-78
2021/11/20 17:28:43;;;;;;;82.43;33.90;;;7.50;99.90;;;;;;6142660;23;20025;-79
2021/11/20 17:31:12;;;;;;;61.80;29.48;;;7.50;99.90;;;;;;6143799;23;20084;-79
2021/11/20 17:33:40;;;;;;;;;;;7.50;99.90;;;;;;6145428;23;20045;-80
2021/11/20 17:36:08;;;;;;;81.60;34.33;;;7.50;99.90;;;;;;6143678;23;19923;-79
2021/11/20 17:38:35;;;;;;;45.97;26.37;;;7.40;99.90;;;;;;6144887;23;20256;-79
2021/11/20 17:41:02;;;;;;;72.47;33.17;;;7.40;99.90;;;;;;6145190;23;20279;-79
2021/11/20 17:43:30;;;;;;;66.13;30.55;;;7.40;99.90;;;;;;6125851;23;20018;-80
2021/11/20 17:45:57;;;;;;;67.85;29.70;;;7.40;99.90;;;;;;6116782;23;20101;-80
2021/11/20 17:48:24;;;;;;;60.10;29.58;;;7.40;99.90;;;;;;6115909;23;20346;-78
2021/11/20 17:50:51;;;;;;;59.45;29.35;;;7.40;99.90;;;;;;6115915;23;20119;-80
2021/11/20 17:53:19;;;;;;;66.80;30.08;;;7.40;99.90;;;;;;6114343;23;20450;-83
2021/11/20 17:55:46;;;;;;;49.97;26.45;;;7.40;99.90;;;;;;6091387;23;20217;-82
2021/11/20 17:58:13;;;;;;;61.78;28.40;;;7.30;99.90;;;;;;6102196;23;20022;-84
2021/11/20 18:00:43;;;;;;;56.08;27.70;;;7.30;99.90;;;;;;6107661;23;20479;-83
2021/11/20 18:03:12;;;;;;;55.30;27.50;;;7.30;99.90;;;;;;6105131;23;20133;-85
2021/11/20 18:05:42;;;;;;;56.08;27.88;;;7.30;99.90;;;;;;6102645;23;20018;-85
2021/11/20 18:08:19;;;;;;;56.63;26.80;;;7.30;99.90;;;;;;6104089;23;20100;-84
2021/11/20 18:11:06;;;;;;;50.42;27.38;;;7.30;99.90;;;;;;6106246;23;20009;-84
2021/11/20 18:13:53;;;;;;;55.13;27.85;;;7.30;99.90;;;;;;6066223;23;20025;-84
2021/11/20 18:16:23;;;;;;;56.50;27.30;;;7.30;99.90;;;;;;6101341;23;20037;-84
2021/11/20 18:18:51;;;;;;;52.58;26.77;;;7.30;99.90;;;;;;6112380;23;20555;-84
2021/11/20 18:21:23;;;;;;;56.58;27.33;;;7.30;99.90;;;;;;6117262;23;20014;-84
2021/11/20 18:24:01;;;;;;;49.65;26.85;;;7.30;99.90;;;;;;6131557;23;20056;-86
2021/11/20 18:26:29;;;;;;;52.38;28.75;;;7.40;99.90;;;;;;6114159;23;20116;-85
2021/11/20 18:28:57;;;;;;;54.28;25.67;;;7.40;99.90;;;;;;6104102;23;20089;-84
2021/11/20 18:31:24;;;;;;;37.03;23.13;;;7.40;99.90;;;;;;6091321;23;20029;-85
2021/11/20 18:33:56;;;;;;;52.63;24.63;;;7.40;99.90;;;;;;6131122;23;20353;-84
2021/11/20 18:36:33;;;;;;;47.63;26.45;;;7.40;99.90;;;;;;6100007;23;20026;-86
2021/11/20 18:39:03;;;;;;;57.72;26.20;;;7.40;99.90;;;;;;6098909;23;20045;-85
2021/11/20 18:41:32;;;;;;;52.58;27.90;;;7.40;99.90;;;;;;6122756;23;20045;-84
2021/11/20 18:43:58;;;;;;;53.25;26.17;;;7.40;99.90;;;;;;6135983;23;20018;-84
2021/11/20 18:46:28;;;;;;;50.00;27.17;;;7.40;99.90;;;;;;6130117;23;20024;-85
2021/11/20 18:48:57;;;;;;;50.00;27.83;;;7.40;99.90;;;;;;6108959;23;20021;-85
2021/11/20 18:51:27;;;;;;;61.35;30.73;;;7.40;99.90;;;;;;6086521;23;20028;-84
2021/11/20 18:54:09;;;;;;;63.78;31.92;;;7.40;99.90;;;;;;6100436;23;20487;-82
2021/11/20 18:57:11;;;;;;;63.30;30.85;;;7.40;99.90;;;;;;6091932;23;20724;-86
2021/11/20 18:59:48;;;;;;;;;;;7.40;99.90;;;;;;6073804;23;20025;-84
2021/11/20 19:02:16;;;;;;;65.95;32.58;;;7.40;99.90;;;;;;6112566;23;19920;-83
2021/11/20 19:04:43;;;;;;;64.57;31.58;;;7.40;99.90;;;;;;6131073;23;20045;-82
2021/11/20 19:07:11;;;;;;;62.08;29.73;;;7.40;99.90;;;;;;6113263;23;20142;-84
2021/11/20 19:09:44;;;;;;;56.03;27.88;;;7.40;99.90;;;;;;6112649;23;20025;-83
2021/11/20 19:12:13;;;;;;;50.78;28.10;;;7.40;99.90;;;;;;6126754;23;20022;-80
2021/11/20 19:14:42;;;;;;;37.38;25.42;;;7.40;99.90;;;;;;6132126;23;20104;-82
2021/11/20 19:17:09;;;;;;;52.28;27.42;;;7.40;99.90;;;;;;6131701;23;20025;-82
2021/11/20 19:19:37;;;;;;;50.38;26.30;;;7.40;99.90;;;;;;6129436;23;20018;-83
2021/11/20 19:22:05;;;;;;;32.17;20.97;;;7.40;99.90;;;;;;6129399;23;20054;-83
2021/11/20 19:24:32;;;;;;;48.90;23.80;;;7.40;99.90;;;;;;6116597;23;20060;-83
2021/11/20 19:26:59;;;;;;;47.63;24.08;;;7.40;99.90;;;;;;6116306;23;20026;-83
2021/11/20 19:29:26;;;;;;;65.75;33.55;;;7.40;99.90;;;;;;6100914;23;20026;-83
2021/11/20 19:31:53;;;;;;;63.40;33.67;;;7.40;99.90;;;;;;6114415;23;20017;-81
2021/11/20 19:34:21;;;;;;;61.13;32.53;;;7.30;99.90;;;;;;6115707;23;20089;-83
2021/11/20 19:36:49;;;;;;;33.97;23.95;;;7.30;99.90;;;;;;6116519;23;20049;-80
2021/11/20 19:39:16;;;;;;;65.93;36.20;;;7.30;99.90;;;;;;6114479;23;20025;-79